Faith Municipal, SD

10:47 AM MDT on August 29, 2014 (GMT -0600)
Philip | Change Station
CLOSE
Current Station
Airport
Location: Philip,
Elevation: 2208 ft
Nearby Weather Stations

Elev 2208 ft 44.05 °N, 101.60 °W | Updated 52 minutes ago

Clear
Clear
72 °F
Feels Like 72 °F
N
26
Wind Variable Wind from NNW
Gusts 32 mph

Today
High -- | Low -- °F
--% Chance of Precip.
Yesterday
High -- | Low -- °F
Precip. -- in
6:06 AM 7:30 PM
Waxing Crescent, 15% visible
Pressure 29.83 in
Visibility 10.0 miles
Clouds Clear
Dew Point 58 °F
Humidity 61%
Rainfall 0.00 in
Snow Depth Not available.
UV 5 out of 12
Pollen 9.20 out of 12
Air Quality Not available.
Flu Activity Not available.
METAR KPHP 291555Z AUTO 33023G28KT 10SM CLR 22/14 A2988 RMK AO2 PK WND 32030/1536 SLP101 T02220144

More Conditions Fewer Conditions

Pressure 29.83 in
Visibility 10.0 miles
Clouds Clear
Dew Point 58 °F
Humidity 61%
Rainfall 0.00 in
Snow Depth Not available.
UV 5 out of 12
Pollen 9.20 out of 12
Air Quality Not available.
Flu Activity Not available.
METAR KPHP 291555Z AUTO 33023G28KT 10SM CLR 22/14 A2988 RMK AO2 PK WND 32030/1536 SLP101 T02220144

More Conditions Fewer Conditions

10-Day Weather Forecast

Almanac

Astronomy

Aug. 29, 2014 Rise Set
Actual Time 6:06 AM MDT 7:30 PM MDT
Civil Twilight 5:35 AM MDT 8:01 PM MDT
Nautical Twilight 4:58 AM MDT 8:37 PM MDT
Astronomical Twilight 4:19 AM MDT 9:16 PM MDT
Moon 10:10 AM MDT 9:16 PM MDT
Length of Visible Light 14h 25m
Length of Day
13h 24m
Tomorrow will be 3m 0s shorter.
Waxing Crescent, 15% of the Moon is Illuminated
Today
Waxing Crescent
Sep 2
First Quarter
Sep 8
Full
Sep 15
Last Quarter
Sep 24
New

Today's Extremes

State Highs State Lows

Community

WunderPhotos

Upload Photos

1,748,285 photos uploaded!

Nearby

Snow Depth

Station Depth Elevation
Blind Park 0 in 6890 ft

Earthquake Activity

City Distance Mag. Time & Date
No recent earthquake activity has been reported nearby.
Minimum magnitude displayed is 2.5.

Coastal Water Temperatures

Place Temperature
No Stations Reporting

Nearby Weather Stations